createdAt,value
2022-10-29T00:00:52.931Z,101719.50
2022-10-29T00:03:21.252Z,101733.06
2022-10-29T00:06:00.176Z,101738.75
2022-10-29T00:08:28.888Z,101739.06
2022-10-29T00:10:57.237Z,101741.03
2022-10-29T00:13:26.400Z,101739.47
2022-10-29T00:15:54.199Z,101740.63
2022-10-29T00:18:22.013Z,101730.75
2022-10-29T00:20:49.836Z,101737.34
2022-10-29T00:23:17.696Z,101733.88
2022-10-29T00:25:45.590Z,101740.56
2022-10-29T00:28:13.406Z,101737.31
2022-10-29T00:30:42.572Z,101747.94
2022-10-29T00:33:10.431Z,101742.72
2022-10-29T00:35:38.296Z,101757.25
2022-10-29T00:38:06.156Z,101764.59
2022-10-29T00:40:37.737Z,101768.94
2022-10-29T00:43:15.131Z,101774.25
2022-10-29T00:45:50.276Z,101782.81
2022-10-29T00:48:18.468Z,101777.97
2022-10-29T00:50:48.332Z,101779.16
2022-10-29T00:53:17.763Z,101766.81
2022-10-29T00:55:45.950Z,101773.66
2022-10-29T00:58:13.960Z,101771.16
2022-10-29T01:00:41.994Z,101767.25
2022-10-29T01:03:11.663Z,101770.28
2022-10-29T01:05:40.988Z,101754.97
2022-10-29T01:08:08.829Z,101755.69
2022-10-29T01:10:47.063Z,101755.06
2022-10-29T01:13:24.391Z,101762.41
2022-10-29T01:16:04.565Z,101773.66
2022-10-29T01:18:39.476Z,101771.34
2022-10-29T01:21:39.259Z,101766.25
2022-10-29T01:24:41.530Z,101771.03
2022-10-29T01:27:41.343Z,101765.16
2022-10-29T01:30:17.407Z,101767.59
2022-10-29T01:32:57.070Z,101761.50
2022-10-29T01:35:34.346Z,101765.59
2022-10-29T01:38:38.081Z,101765.34
2022-10-29T01:41:13.214Z,101767.09
2022-10-29T01:43:46.985Z,101763.88
2022-10-29T01:46:18.971Z,101774.63
2022-10-29T01:48:51.204Z,101775.84
2022-10-29T01:51:23.216Z,101784.41
2022-10-29T01:53:51.924Z,101782.94
2022-10-29T01:56:19.774Z,101788.63
2022-10-29T01:58:50.206Z,101792.38
2022-10-29T02:01:33.228Z,101785.47
2022-10-29T02:04:16.306Z,101797.44
2022-10-29T02:06:53.344Z,101794.31
2022-10-29T02:09:27.645Z,101803.16
2022-10-29T02:12:00.464Z,101797.50
2022-10-29T02:14:34.182Z,101803.75
2022-10-29T02:17:03.804Z,101791.53
2022-10-29T02:19:34.753Z,101798.25
2022-10-29T02:22:02.719Z,101801.22
2022-10-29T02:24:30.541Z,101812.00
2022-10-29T02:26:58.346Z,101810.66
2022-10-29T02:29:26.187Z,101812.00
2022-10-29T02:31:54.032Z,101821.59
2022-10-29T02:34:21.898Z,101825.19
2022-10-29T02:36:51.065Z,101817.47
2022-10-29T02:39:18.963Z,101826.06
2022-10-29T02:41:46.771Z,101832.44
2022-10-29T02:44:14.604Z,101828.78
2022-10-29T02:46:42.410Z,101833.16
2022-10-29T02:49:10.244Z,101833.47
2022-10-29T02:51:38.029Z,101824.91
2022-10-29T02:54:07.350Z,101838.59
2022-10-29T02:56:35.208Z,101844.44
2022-10-29T02:59:05.254Z,101844.47
2022-10-29T03:01:35.670Z,101834.63
2022-10-29T03:04:03.665Z,101824.91
2022-10-29T03:06:31.589Z,101824.06
2022-10-29T03:08:59.420Z,101833.19
2022-10-29T03:11:28.820Z,101831.75
2022-10-29T03:13:56.913Z,101833.63
2022-10-29T03:16:24.799Z,101833.03
2022-10-29T03:18:52.636Z,101840.00
2022-10-29T03:21:20.434Z,101832.47
2022-10-29T03:23:48.302Z,101832.91
2022-10-29T03:26:16.152Z,101816.66
2022-10-29T03:31:14.293Z,101828.63
2022-10-29T03:33:42.120Z,101828.03
2022-10-29T03:36:10.260Z,101836.31
2022-10-29T03:38:38.148Z,101840.03
2022-10-29T03:41:10.315Z,101842.00
2022-10-29T03:43:38.580Z,101836.59
2022-10-29T03:46:08.118Z,101845.31
2022-10-29T03:48:36.136Z,101851.41
2022-10-29T03:51:06.947Z,101849.69
2022-10-29T03:53:36.406Z,101853.69
2022-10-29T03:56:04.921Z,101851.28
2022-10-29T03:58:32.769Z,101837.03
2022-10-29T04:01:01.921Z,101844.88
2022-10-29T04:03:33.028Z,101848.16
2022-10-29T04:06:03.904Z,101847.16
2022-10-29T04:08:31.713Z,101855.41
2022-10-29T04:10:59.511Z,101865.41
2022-10-29T04:13:27.365Z,101852.84
2022-10-29T04:15:55.969Z,101861.97
2022-10-29T04:18:23.941Z,101861.69
2022-10-29T04:29:17.651Z,101858.13
2022-10-29T04:31:45.498Z,101860.81
2022-10-29T04:34:13.340Z,101849.00
2022-10-29T04:36:42.545Z,101857.00
2022-10-29T04:39:10.347Z,101848.69
2022-10-29T04:41:38.165Z,101851.13
2022-10-29T04:44:06.268Z,101844.72
2022-10-29T04:46:34.088Z,101842.28
2022-10-29T04:49:02.128Z,101833.91
2022-10-29T04:51:30.033Z,101841.56
2022-10-29T04:53:59.187Z,101830.31
2022-10-29T04:56:27.025Z,101842.00
2022-10-29T04:58:54.833Z,101855.22
2022-10-29T05:01:23.159Z,101858.25
2022-10-29T05:03:54.265Z,101866.03
2022-10-29T05:06:25.057Z,101862.91
2022-10-29T05:08:52.936Z,101862.22
2022-10-29T05:11:22.172Z,101863.66
2022-10-29T05:13:49.969Z,101873.50
2022-10-29T05:16:17.958Z,101866.50
2022-10-29T05:18:45.771Z,101873.31
2022-10-29T05:21:13.624Z,101879.03
2022-10-29T05:23:41.412Z,101878.44
2022-10-29T05:26:09.313Z,101878.56
2022-10-29T05:28:38.496Z,101882.06
2022-10-29T05:31:06.352Z,101882.59
2022-10-29T05:33:34.150Z,101882.63
2022-10-29T05:36:01.964Z,101884.91
2022-10-29T05:38:29.779Z,101890.06
2022-10-29T05:40:59.178Z,101884.56
2022-10-29T05:43:27.176Z,101873.38
2022-10-29T05:45:56.439Z,101869.09
2022-10-29T05:48:24.245Z,101865.84
2022-10-29T05:50:52.060Z,101861.78
2022-10-29T05:53:19.898Z,101856.69
2022-10-29T05:55:47.748Z,101848.44
2022-10-29T05:58:15.656Z,101851.00
2022-10-29T06:00:46.362Z,101851.19
2022-10-29T06:03:17.811Z,101868.47
2022-10-29T06:05:47.231Z,101877.91
2022-10-29T06:08:15.371Z,101875.53
2022-10-29T06:10:43.404Z,101878.91
2022-10-29T06:13:12.397Z,101885.50
2022-10-29T06:15:40.401Z,101888.63
2022-10-29T06:18:08.699Z,101883.50
2022-10-29T06:20:38.735Z,101876.34
2022-10-29T06:23:06.976Z,101879.06
2022-10-29T06:25:35.103Z,101882.22
2022-10-29T06:28:04.786Z,101892.44
2022-10-29T06:30:34.673Z,101891.91
2022-10-29T06:33:03.028Z,101892.56
2022-10-29T06:35:31.401Z,101893.84
2022-10-29T06:38:01.321Z,101909.97
2022-10-29T06:40:29.796Z,101901.28
2022-10-29T06:43:01.205Z,101899.22
2022-10-29T06:45:29.436Z,101899.47
2022-10-29T06:47:57.904Z,101904.38
2022-10-29T06:50:26.691Z,101906.34
2022-10-29T06:52:56.372Z,101909.97
2022-10-29T06:55:26.345Z,101903.72
2022-10-29T06:57:58.961Z,101903.94
2022-10-29T07:00:27.060Z,101911.41
2022-10-29T07:02:55.626Z,101910.19
2022-10-29T07:05:24.413Z,101913.13
2022-10-29T07:07:56.429Z,101914.78
2022-10-29T07:10:27.247Z,101914.22
2022-10-29T07:12:55.977Z,101913.66
2022-10-29T07:15:27.362Z,101898.28
2022-10-29T07:17:58.950Z,101906.72
2022-10-29T07:20:27.593Z,101910.69
2022-10-29T07:22:55.449Z,101920.25
2022-10-29T07:25:23.304Z,101916.97
2022-10-29T07:27:52.638Z,101920.25
2022-10-29T07:30:20.977Z,101924.94
2022-10-29T07:32:48.906Z,101921.41
2022-10-29T07:35:16.903Z,101936.38
2022-10-29T07:37:44.784Z,101930.38
2022-10-29T07:40:13.876Z,101936.38
2022-10-29T07:42:41.789Z,101939.22
2022-10-29T07:45:11.825Z,101940.25
2022-10-29T07:47:39.772Z,101938.84
2022-10-29T07:50:08.719Z,101931.56
2022-10-29T07:52:36.656Z,101936.41
2022-10-29T07:55:04.531Z,101941.28
2022-10-29T07:57:32.432Z,101955.09
2022-10-29T08:00:00.229Z,101951.53
2022-10-29T08:02:29.413Z,101947.09
2022-10-29T08:04:57.234Z,101938.31
2022-10-29T08:07:25.198Z,101948.03
2022-10-29T08:09:52.995Z,101947.00
2022-10-29T08:12:21.292Z,101945.56
2022-10-29T08:14:49.090Z,101935.00
2022-10-29T08:17:16.921Z,101935.31
2022-10-29T08:19:46.079Z,101940.72
2022-10-29T08:22:13.884Z,101939.56
2022-10-29T08:24:41.692Z,101942.13
2022-10-29T08:27:09.567Z,101943.69
2022-10-29T08:29:37.372Z,101938.22
2022-10-29T08:32:05.484Z,101938.66
2022-10-29T08:34:33.343Z,101950.50
2022-10-29T08:37:03.041Z,101939.34
2022-10-29T08:39:30.847Z,101934.19
2022-10-29T08:42:11.280Z,101936.00
2022-10-29T08:45:06.845Z,101942.53
2022-10-29T08:47:44.577Z,101939.44
2022-10-29T08:50:25.013Z,101938.88
2022-10-29T08:53:21.899Z,101942.53
2022-10-29T08:55:43.536Z,101930.50
2022-10-29T08:58:29.684Z,101944.97
2022-10-29T09:00:59.780Z,101938.03
2022-10-29T09:03:29.876Z,101936.63
2022-10-29T09:06:08.543Z,101941.34
2022-10-29T09:08:55.801Z,101935.09
2022-10-29T09:11:41.710Z,101949.19
2022-10-29T09:14:29.102Z,101933.91
2022-10-29T09:17:01.710Z,101942.47
2022-10-29T09:19:52.042Z,101929.03
2022-10-29T09:22:30.151Z,101932.19
2022-10-29T09:25:11.154Z,101953.41
2022-10-29T09:27:50.557Z,101952.94
2022-10-29T09:30:20.768Z,101953.00
2022-10-29T09:32:58.264Z,101944.84
2022-10-29T09:35:39.254Z,101943.03
2022-10-29T09:38:15.141Z,101938.97
2022-10-29T09:40:44.506Z,101937.81
2022-10-29T09:43:36.028Z,101941.50
2022-10-29T09:46:12.624Z,101938.06
2022-10-29T09:48:52.415Z,101933.00
2022-10-29T09:51:28.951Z,101932.53
2022-10-29T09:53:56.823Z,101931.97
2022-10-29T09:56:26.132Z,101917.47
2022-10-29T09:58:59.160Z,101918.63
2022-10-29T10:01:27.089Z,101907.81
2022-10-29T10:03:59.386Z,101925.81
2022-10-29T10:06:27.208Z,101917.41
2022-10-29T10:09:02.588Z,101909.66
2022-10-29T10:11:40.834Z,101909.19
2022-10-29T10:14:16.867Z,101913.56
2022-10-29T10:16:45.110Z,101915.69
2022-10-29T10:19:26.990Z,101909.94
2022-10-29T10:21:59.490Z,101900.41
2022-10-29T10:24:32.689Z,101905.78
2022-10-29T10:27:02.180Z,101897.28
2022-10-29T10:29:30.066Z,101885.75
2022-10-29T10:32:17.203Z,101877.94
2022-10-29T10:34:46.285Z,101879.94
2022-10-29T10:37:19.887Z,101874.84
2022-10-29T10:39:51.103Z,101881.31
2022-10-29T10:42:23.499Z,101877.97
2022-10-29T10:44:54.449Z,101881.53
2022-10-29T10:47:25.016Z,101879.97
2022-10-29T10:49:53.105Z,101889.88
2022-10-29T10:52:26.707Z,101885.47
2022-10-29T10:55:01.331Z,101883.41
2022-10-29T10:57:34.373Z,101893.66
2022-10-29T11:00:07.412Z,101893.16
2022-10-29T11:02:46.249Z,101887.00
2022-10-29T11:05:19.544Z,101880.56
2022-10-29T11:07:52.272Z,101881.44
2022-10-29T11:10:26.324Z,101873.22
2022-10-29T11:12:57.754Z,101879.00
2022-10-29T11:15:35.644Z,101864.31
2022-10-29T11:18:12.489Z,101860.19
2022-10-29T11:20:46.042Z,101849.06
2022-10-29T11:23:27.026Z,101846.53
2022-10-29T11:26:01.126Z,101839.09
2022-10-29T11:28:38.543Z,101835.38
2022-10-29T11:31:17.319Z,101837.94
2022-10-29T11:33:52.407Z,101840.81
2022-10-29T11:36:23.727Z,101831.97
2022-10-29T11:38:56.505Z,101838.09
2022-10-29T11:41:31.116Z,101834.19
2022-10-29T11:44:00.388Z,101827.84
2022-10-29T11:46:38.526Z,101834.19
2022-10-29T11:49:23.075Z,101835.03
2022-10-29T11:52:03.014Z,101834.03
2022-10-29T11:54:41.613Z,101819.00
2022-10-29T11:57:17.573Z,101812.38
2022-10-29T12:00:01.217Z,101808.44
2022-10-29T12:02:45.575Z,101805.06
2022-10-29T12:05:22.751Z,101801.44
2022-10-29T12:08:04.891Z,101811.16
2022-10-29T12:10:41.110Z,101798.28
2022-10-29T12:13:20.358Z,101793.28
2022-10-29T12:16:02.027Z,101791.28
2022-10-29T12:18:42.217Z,101786.84
2022-10-29T12:21:18.909Z,101787.16
2022-10-29T12:23:58.050Z,101784.13
2022-10-29T12:26:31.020Z,101786.03
2022-10-29T12:29:06.500Z,101790.22
2022-10-29T12:31:45.130Z,101783.47
2022-10-29T12:34:19.946Z,101789.44
2022-10-29T12:36:57.663Z,101789.25
2022-10-29T12:39:30.822Z,101783.44
2022-10-29T12:42:02.360Z,101784.00
2022-10-29T12:44:44.858Z,101780.16
2022-10-29T12:47:17.825Z,101779.31
2022-10-29T12:49:59.690Z,101774.22
2022-10-29T12:52:35.480Z,101768.47
2022-10-29T12:55:07.656Z,101759.94
2022-10-29T12:57:37.473Z,101752.78
2022-10-29T13:00:34.426Z,101749.66
2022-10-29T13:03:04.273Z,101737.50
2022-10-29T13:05:44.188Z,101739.31
2022-10-29T13:08:27.393Z,101725.75
2022-10-29T13:10:57.516Z,101743.47
2022-10-29T13:13:55.249Z,101738.53
2022-10-29T13:16:29.765Z,101735.44
2022-10-29T13:19:15.737Z,101734.09
2022-10-29T13:22:01.502Z,101733.75
2022-10-29T13:24:30.570Z,101731.38
2022-10-29T13:27:26.727Z,101733.41
2022-10-29T13:30:18.110Z,101727.97
2022-10-29T13:32:46.153Z,101724.09
2022-10-29T13:35:42.398Z,101719.78
2022-10-29T13:38:19.544Z,101728.59
2022-10-29T13:41:09.189Z,101723.53
2022-10-29T13:43:37.089Z,101727.75
2022-10-29T13:46:28.112Z,101719.91
2022-10-29T13:48:57.294Z,101722.72
2022-10-29T13:51:49.549Z,101719.28
2022-10-29T13:54:23.523Z,101720.59
2022-10-29T13:56:56.038Z,101713.69
2022-10-29T13:59:37.121Z,101710.94
2022-10-29T14:02:21.750Z,101704.66
2022-10-29T14:04:53.485Z,101709.88
2022-10-29T14:07:29.411Z,101711.56
2022-10-29T14:10:03.432Z,101723.31
2022-10-29T14:12:33.907Z,101712.81
2022-10-29T14:15:11.417Z,101720.50
2022-10-29T14:17:39.798Z,101713.69
2022-10-29T14:20:22.397Z,101705.88
2022-10-29T14:22:51.851Z,101702.78
2022-10-29T14:25:35.750Z,101715.09
2022-10-29T14:28:11.955Z,101709.97
2022-10-29T14:30:39.843Z,101719.88
2022-10-29T14:33:24.379Z,101723.94
2022-10-29T14:35:54.873Z,101719.50
2022-10-29T14:38:33.427Z,101724.28
2022-10-29T14:41:01.909Z,101716.28
2022-10-29T14:43:30.761Z,101716.09
2022-10-29T14:46:11.927Z,101723.13
2022-10-29T14:48:46.517Z,101723.78
2022-10-29T14:51:20.490Z,101721.91
2022-10-29T14:53:56.750Z,101717.81
2022-10-29T14:56:32.490Z,101717.78
2022-10-29T14:59:02.135Z,101718.50
2022-10-29T15:01:30.048Z,101723.09
2022-10-29T15:03:59.410Z,101721.25
2022-10-29T15:06:29.933Z,101716.09
2022-10-29T15:09:01.363Z,101714.22
2022-10-29T15:11:36.050Z,101720.19
2022-10-29T15:14:06.126Z,101721.59
2022-10-29T15:16:38.273Z,101710.00
2022-10-29T15:19:14.587Z,101703.19
2022-10-29T15:21:42.494Z,101715.78
2022-10-29T15:24:20.413Z,101700.97
2022-10-29T15:26:51.815Z,101706.59
2022-10-29T15:29:29.160Z,101701.31
2022-10-29T15:32:00.259Z,101706.59
2022-10-29T15:34:33.178Z,101707.97
2022-10-29T15:37:20.455Z,101707.41
2022-10-29T15:40:04.010Z,101704.16
2022-10-29T15:42:32.935Z,101701.44
2022-10-29T15:45:14.754Z,101703.31
2022-10-29T15:47:44.495Z,101705.03
2022-10-29T15:50:14.606Z,101704.84
2022-10-29T15:52:44.345Z,101717.59
2022-10-29T15:55:26.057Z,101717.91
2022-10-29T15:57:57.128Z,101726.44
2022-10-29T16:00:25.137Z,101731.84
2022-10-29T16:02:53.004Z,101733.06
2022-10-29T16:05:20.872Z,101731.38
2022-10-29T16:07:49.266Z,101726.06
2022-10-29T16:10:20.781Z,101733.91
2022-10-29T16:12:49.950Z,101737.50
2022-10-29T16:15:20.081Z,101728.97
2022-10-29T16:17:48.432Z,101720.47
2022-10-29T16:20:18.172Z,101726.94
2022-10-29T16:22:47.550Z,101728.97
2022-10-29T16:25:25.870Z,101723.53
2022-10-29T16:27:54.430Z,101726.09
2022-10-29T16:30:24.606Z,101723.84
2022-10-29T16:32:53.468Z,101723.19
2022-10-29T16:35:22.832Z,101718.75
2022-10-29T16:37:51.845Z,101722.50
2022-10-29T16:40:21.632Z,101728.56
2022-10-29T16:42:51.256Z,101717.31
2022-10-29T16:45:21.669Z,101715.28
2022-10-29T16:47:50.859Z,101721.91
2022-10-29T16:50:20.612Z,101722.16
2022-10-29T16:52:48.934Z,101727.03
2022-10-29T16:55:16.881Z,101715.22
2022-10-29T16:57:44.691Z,101716.53
2022-10-29T17:00:15.209Z,101725.00
2022-10-29T17:02:44.622Z,101714.81
2022-10-29T17:05:12.644Z,101716.53
2022-10-29T17:07:40.996Z,101711.25
2022-10-29T17:10:09.757Z,101711.81
2022-10-29T17:12:37.871Z,101709.78
2022-10-29T17:15:06.589Z,101716.53
2022-10-29T17:17:35.766Z,101717.41
2022-10-29T17:20:03.632Z,101720.88
2022-10-29T17:22:31.919Z,101731.53
2022-10-29T17:24:59.752Z,101719.66
2022-10-29T17:27:27.655Z,101728.06
2022-10-29T17:29:55.487Z,101728.41
2022-10-29T17:32:23.349Z,101732.50
2022-10-29T17:34:52.587Z,101725.13
2022-10-29T17:37:20.420Z,101732.94
2022-10-29T17:39:48.546Z,101732.38
2022-10-29T17:42:16.344Z,101735.38
2022-10-29T17:44:44.176Z,101725.69
2022-10-29T17:47:12.110Z,101738.44
2022-10-29T17:49:40.308Z,101733.22
2022-10-29T17:52:09.523Z,101736.44
2022-10-29T17:54:37.314Z,101734.16
2022-10-29T17:57:05.290Z,101734.75
2022-10-29T17:59:33.091Z,101730.59
2022-10-29T18:02:01.088Z,101732.34
2022-10-29T18:04:29.041Z,101727.22
2022-10-29T18:06:57.047Z,101725.47
2022-10-29T18:09:26.217Z,101726.84
2022-10-29T18:11:54.034Z,101727.16
2022-10-29T18:14:21.845Z,101732.59
2022-10-29T18:16:49.637Z,101727.41
2022-10-29T18:19:17.485Z,101717.69
2022-10-29T18:21:45.324Z,101706.34
2022-10-29T18:24:13.225Z,101718.78
2022-10-29T18:26:42.407Z,101715.09
2022-10-29T18:29:13.142Z,101722.97
2022-10-29T18:31:44.855Z,101716.84
2022-10-29T18:34:15.038Z,101712.94
2022-10-29T18:36:43.442Z,101717.91
2022-10-29T18:39:11.299Z,101718.72
2022-10-29T18:41:39.541Z,101720.66
2022-10-29T18:44:08.772Z,101720.72
2022-10-29T18:46:36.741Z,101719.31
2022-10-29T18:49:04.635Z,101724.22
2022-10-29T18:51:33.890Z,101727.09
2022-10-29T18:54:01.770Z,101731.22
2022-10-29T18:56:31.019Z,101720.22
2022-10-29T18:58:59.857Z,101720.03
2022-10-29T19:01:31.651Z,101709.66
2022-10-29T19:04:02.378Z,101707.00
2022-10-29T19:06:33.867Z,101719.44
2022-10-29T19:09:03.512Z,101715.47
2022-10-29T19:11:34.452Z,101711.75
2022-10-29T19:14:03.946Z,101703.63
2022-10-29T19:16:34.097Z,101693.44
2022-10-29T19:21:37.458Z,101705.84
2022-10-29T19:24:06.321Z,101702.03
2022-10-29T19:26:36.061Z,101699.88
2022-10-29T19:29:05.437Z,101699.25
2022-10-29T19:31:36.550Z,101701.59
2022-10-29T19:34:06.857Z,101701.66
2022-10-29T19:36:35.727Z,101698.03
2022-10-29T19:39:04.211Z,101697.16
2022-10-29T19:41:32.384Z,101689.81
2022-10-29T19:44:01.539Z,101688.94
2022-10-29T19:46:36.984Z,101688.03
2022-10-29T19:49:04.799Z,101691.19
2022-10-29T19:51:38.029Z,101690.88
2022-10-29T19:54:08.034Z,101693.91
2022-10-29T19:56:35.867Z,101689.03
2022-10-29T19:59:04.773Z,101689.44
2022-10-29T20:01:33.284Z,101694.25
2022-10-29T20:04:02.715Z,101693.38
2022-10-29T20:06:30.627Z,101693.44
2022-10-29T20:08:58.578Z,101700.13
2022-10-29T20:11:26.390Z,101698.19
2022-10-29T20:13:54.335Z,101693.09
2022-10-29T20:16:22.777Z,101700.53
2022-10-29T20:18:51.142Z,101697.38
2022-10-29T20:21:20.437Z,101699.22
2022-10-29T20:23:48.332Z,101693.94
2022-10-29T20:26:16.302Z,101695.97
2022-10-29T20:28:44.153Z,101697.28
2022-10-29T20:31:29.757Z,101707.03
2022-10-29T20:34:00.412Z,101707.94
2022-10-29T20:36:31.820Z,101704.66
2022-10-29T20:39:00.044Z,101699.91
2022-10-29T20:41:28.605Z,101700.75
2022-10-29T20:43:58.267Z,101693.44
2022-10-29T20:46:26.903Z,101708.16
2022-10-29T20:48:55.140Z,101712.78
2022-10-29T20:51:23.786Z,101711.78
2022-10-29T20:53:53.829Z,101722.00
2022-10-29T20:56:23.545Z,101714.50
2022-10-29T20:58:51.500Z,101708.59
2022-10-29T21:01:21.061Z,101711.66
2022-10-29T21:03:50.300Z,101705.31
2022-10-29T21:06:18.545Z,101713.56
2022-10-29T21:08:46.939Z,101703.56
2022-10-29T21:11:17.793Z,101696.13
2022-10-29T21:13:46.340Z,101695.94
2022-10-29T21:16:17.520Z,101690.47
2022-10-29T21:18:46.887Z,101705.50
2022-10-29T21:21:15.270Z,101706.50
2022-10-29T21:23:43.413Z,101708.81
2022-10-29T21:26:13.479Z,101701.94
2022-10-29T21:28:42.838Z,101702.94
2022-10-29T21:31:11.243Z,101702.53
2022-10-29T21:33:39.098Z,101691.19
2022-10-29T21:36:07.241Z,101697.09
2022-10-29T21:38:35.308Z,101705.38
2022-10-29T21:41:03.112Z,101704.38
2022-10-29T21:43:31.146Z,101701.53
2022-10-29T21:46:00.437Z,101699.72
2022-10-29T21:48:29.122Z,101705.44
2022-10-29T21:51:02.302Z,101710.59
2022-10-29T21:53:30.076Z,101699.94
2022-10-29T21:55:58.484Z,101686.09
2022-10-29T21:58:27.090Z,101691.16
2022-10-29T22:01:05.505Z,101690.25
2022-10-29T22:03:34.176Z,101689.19
2022-10-29T22:06:03.378Z,101683.81
2022-10-29T22:08:31.237Z,101675.25
2022-10-29T22:10:59.348Z,101677.97
2022-10-29T22:13:28.165Z,101678.69
2022-10-29T22:15:56.091Z,101683.53
2022-10-29T22:18:26.698Z,101682.16
2022-10-29T22:21:08.069Z,101673.75
2022-10-29T22:23:37.879Z,101667.28
2022-10-29T22:26:05.953Z,101666.69
2022-10-29T22:28:33.787Z,101654.84
2022-10-29T22:31:03.234Z,101657.47
2022-10-29T22:33:34.379Z,101653.84
2022-10-29T22:36:07.859Z,101663.56
2022-10-29T22:38:35.771Z,101674.41
2022-10-29T22:41:08.334Z,101688.25
2022-10-29T22:43:47.046Z,101686.75
2022-10-29T22:46:17.702Z,101681.66
2022-10-29T22:48:47.034Z,101671.81
2022-10-29T22:51:17.302Z,101677.97
2022-10-29T22:53:46.181Z,101689.31
2022-10-29T22:56:15.171Z,101677.31
2022-10-29T22:58:43.841Z,101685.81
2022-10-29T23:01:13.846Z,101680.09
2022-10-29T23:03:42.804Z,101675.84
2022-10-29T23:06:13.943Z,101680.41
2022-10-29T23:08:42.798Z,101678.34
2022-10-29T23:11:16.569Z,101684.47
2022-10-29T23:13:44.848Z,101686.66
2022-10-29T23:16:13.147Z,101687.22
2022-10-29T23:18:41.081Z,101684.06
2022-10-29T23:21:09.829Z,101676.81
2022-10-29T23:23:39.088Z,101674.03
2022-10-29T23:26:06.948Z,101667.59
2022-10-29T23:28:36.562Z,101672.22
2022-10-29T23:31:06.492Z,101671.91
2022-10-29T23:33:35.195Z,101682.09
2022-10-29T23:36:03.439Z,101689.97
2022-10-29T23:38:31.648Z,101672.25
2022-10-29T23:41:01.619Z,101675.44
2022-10-29T23:43:29.495Z,101675.16
2022-10-29T23:45:57.623Z,101675.44
2022-10-29T23:48:26.239Z,101676.72
2022-10-29T23:50:54.953Z,101669.75
2022-10-29T23:53:22.936Z,101669.22
2022-10-29T23:55:50.805Z,101677.50
2022-10-29T23:58:19.985Z,101676.25
